< < Back
Terminal Aerodrome Forecast


Current Version              Previous Versions:   1  2  3  4  5  6  7  8  9  

Terminal Aerodrome Forecast

255
FTUS42 KCAE 240900 AAB
TAFAGS
TAF AMD
KAGS 240923Z 2409/2506 05004KT P6SM SKC
     FM241300 07010G15KT P6SM SKC
     FM242000 12007KT P6SM BKN045=

Latest METAR

401
SAUS70 KWBC 241400 RRA
MTRAGS
METAR KAGS 241353Z VRB06KT 10SM CLR 19/04 A3007 RMK AO2 SLP180
T01890044


USA.gov is the U.S. government's official web portal to all federal, state and local government web resources and services.